Time;durP1;ratioP1;P1;durP2;ratioP2;P2;SDS_P1;SDS_P2;PMS_P1;PMS_P2;Temp;Humidity;BMP_temperature;BMP_pressure;BME280_temperature;BME280_humidity;BME280_pressure;Samples;Min_cycle;Max_cycle;Signal;HPM_P1;HPM_P2
2022/11/18 00:01:29;;;;;;;4.18;1.23;;;;;;;;;;5052490;28;20610;-81
2022/11/18 00:03:55;;;;;;;3.70;1.60;;;;;;;;;;5036860;28;20051;-81
2022/11/18 00:06:23;;;;;;;3.78;1.60;;;;;;;;;;5054836;28;20561;-81
2022/11/18 00:08:49;;;;;;;5.85;1.70;;;;;;;;;;5036680;28;20091;-81
2022/11/18 00:14:17;;;;;;;5.25;1.33;;;;;;;;;;5046791;28;20545;-81
2022/11/18 00:14:18;;;;;;;2.80;1.17;;;;;;;;;;5054863;28;20059;-81
2022/11/18 00:16:45;;;;;;;2.53;1.25;;;;;;;;;;5055332;28;20183;-81
2022/11/18 00:19:11;;;;;;;2.33;1.52;;;;;;;;;;5035633;28;20511;-82
2022/11/18 00:21:38;;;;;;;2.53;1.13;;;;;;;;;;5054348;28;20045;-82
2022/11/18 00:24:04;;;;;;;4.35;0.95;;;;;;;;;;5051268;28;20051;-81
2022/11/18 00:26:30;;;;;;;2.58;1.20;;;;;;;;;;5053735;28;20232;-82
2022/11/18 00:28:56;;;;;;;3.47;1.77;;;;;;;;;;5036370;28;20519;-82
2022/11/18 00:31:22;;;;;;;6.25;1.55;;;;;;;;;;5036276;28;20606;-81
2022/11/18 00:33:48;;;;;;;1.80;0.90;;;;;;;;;;5055683;28;20037;-82
2022/11/18 00:36:15;;;;;;;1.92;0.98;;;;;;;;;;5030911;28;20048;-82
2022/11/18 00:38:41;;;;;;;0.93;0.82;;;;;;;;;;5055118;28;20522;-82
2022/11/18 00:41:14;;;;;;;4.38;1.30;;;;;;;;;;5056667;28;20074;-82
2022/11/18 00:43:41;;;;;;;2.05;0.93;;;;;;;;;;5031106;28;20696;-82
2022/11/18 00:46:08;;;;;;;4.40;1.30;;;;;;;;;;5036391;28;20075;-81
2022/11/18 00:48:35;;;;;;;2.25;1.27;;;;;;;;;;5055628;28;20045;-81
2022/11/18 00:51:12;;;;;;;2.70;1.10;;;;;;;;;;5053871;28;20041;-82
2022/11/18 00:53:39;;;;;;;2.42;1.35;;;;;;;;;;5034802;28;20046;-82
2022/11/18 00:56:05;;;;;;;6.00;1.05;;;;;;;;;;5053432;28;20527;-82
2022/11/18 00:58:31;;;;;;;4.07;1.30;;;;;;;;;;5029771;28;20144;-81
2022/11/18 01:00:57;;;;;;;2.35;1.45;;;;;;;;;;5052253;28;20048;-82
2022/11/18 01:03:24;;;;;;;3.58;1.10;;;;;;;;;;5054045;28;20499;-81
2022/11/18 01:05:51;;;;;;;4.18;1.38;;;;;;;;;;5053370;28;20064;-81
2022/11/18 01:08:18;;;;;;;2.15;1.35;;;;;;;;;;5031856;28;20535;-81
2022/11/18 01:10:44;;;;;;;2.63;0.80;;;;;;;;;;5052518;28;20061;-81
2022/11/18 01:13:18;;;;;;;2.72;1.33;;;;;;;;;;5052120;28;20541;-82
2022/11/18 01:15:45;;;;;;;2.35;0.90;;;;;;;;;;5054052;28;20048;-81
2022/11/18 01:18:11;;;;;;;4.32;1.10;;;;;;;;;;5055592;28;20056;-81
2022/11/18 01:20:37;;;;;;;4.80;1.10;;;;;;;;;;5057826;28;20045;-82
2022/11/18 01:23:03;;;;;;;3.20;1.10;;;;;;;;;;5054432;28;20141;-81
2022/11/18 01:25:30;;;;;;;2.65;1.42;;;;;;;;;;5052554;28;20480;-82
2022/11/18 01:27:56;;;;;;;4.07;1.08;;;;;;;;;;5029907;28;20044;-81
2022/11/18 01:30:23;;;;;;;5.78;1.23;;;;;;;;;;5056223;28;20041;-81
2022/11/18 01:32:49;;;;;;;3.13;1.20;;;;;;;;;;5057675;28;20435;-81
2022/11/18 01:35:15;;;;;;;5.22;1.23;;;;;;;;;;5055359;28;20087;-81
2022/11/18 01:37:41;;;;;;;11.25;1.98;;;;;;;;;;5058099;28;20045;-80
2022/11/18 01:40:08;;;;;;;5.80;1.40;;;;;;;;;;5055761;28;20041;-82
2022/11/18 01:42:35;;;;;;;7.15;1.10;;;;;;;;;;5039491;28;20048;-81
2022/11/18 01:45:15;;;;;;;10.25;2.40;;;;;;;;;;5037515;28;20045;-81
2022/11/18 01:47:44;;;;;;;16.75;2.95;;;;;;;;;;5057489;28;20052;-82
2022/11/18 01:50:12;;;;;;;3.13;1.42;;;;;;;;;;5037808;28;20044;-81
2022/11/18 01:52:39;;;;;;;3.30;1.55;;;;;;;;;;5059910;28;20033;-82
2022/11/18 01:55:25;;;;;;;4.93;1.10;;;;;;;;;;5056906;28;20124;-82
2022/11/18 01:57:53;;;;;;;3.90;1.52;;;;;;;;;;5056367;28;20184;-81
2022/11/18 02:00:19;;;;;;;5.30;1.98;;;;;;;;;;5057288;28;20040;-82
2022/11/18 02:02:46;;;;;;;5.40;1.33;;;;;;;;;;5057969;28;20518;-81
2022/11/18 02:05:12;;;;;;;3.13;1.35;;;;;;;;;;5056591;28;20045;-81
2022/11/18 02:07:40;;;;;;;4.22;1.67;;;;;;;;;;5032361;28;20040;-81
2022/11/18 02:10:07;;;;;;;4.15;2.95;;;;;;;;;;5057155;28;20052;-82
2022/11/18 02:12:34;;;;;;;5.05;1.52;;;;;;;;;;5057320;28;20131;-82
2022/11/18 02:15:00;;;;;;;8.98;2.00;;;;;;;;;;5031133;28;20202;-81
2022/11/18 02:17:26;;;;;;;8.95;1.83;;;;;;;;;;5055715;28;20061;-82
2022/11/18 02:20:01;;;;;;;6.80;1.73;;;;;;;;;;5054855;28;20041;-81
2022/11/18 02:22:46;;;;;;;7.72;1.83;;;;;;;;;;5056173;28;20044;-81
2022/11/18 02:25:21;;;;;;;4.97;1.40;;;;;;;;;;5057581;28;20041;-81
2022/11/18 02:28:06;;;;;;;2.85;1.80;;;;;;;;;;5058001;28;20103;-81
2022/11/18 02:30:33;;;;;;;9.02;1.70;;;;;;;;;;5057928;28;20025;-81
2022/11/18 02:33:05;;;;;;;7.45;1.33;;;;;;;;;;5057273;28;20827;-81
2022/11/18 02:35:34;;;;;;;4.72;1.67;;;;;;;;;;5039828;28;20033;-82
2022/11/18 02:38:04;;;;;;;3.45;1.90;;;;;;;;;;5058083;28;20092;-80
2022/11/18 02:40:36;;;;;;;4.32;1.35;;;;;;;;;;5041085;28;20049;-82
2022/11/18 02:43:06;;;;;;;6.43;2.83;;;;;;;;;;5055867;28;20041;-81
2022/11/18 02:45:33;;;;;;;5.68;1.67;;;;;;;;;;5036940;28;20073;-81
2022/11/18 02:48:08;;;;;;;6.63;2.25;;;;;;;;;;5055470;28;21491;-81
2022/11/18 02:50:35;;;;;;;2.40;0.90;;;;;;;;;;5036215;28;20113;-80
2022/11/18 02:53:02;;;;;;;5.75;1.27;;;;;;;;;;5057018;28;20637;-81
2022/11/18 02:55:30;;;;;;;5.53;0.98;;;;;;;;;;5037951;28;20044;-81
2022/11/18 02:57:57;;;;;;;6.63;1.50;;;;;;;;;;5055158;28;20045;-81
2022/11/18 03:00:23;;;;;;;3.78;1.15;;;;;;;;;;5056776;28;20045;-81
2022/11/18 03:02:49;;;;;;;3.92;2.30;;;;;;;;;;5057785;28;20044;-81
2022/11/18 03:05:21;;;;;;;9.15;1.70;;;;;;;;;;5055156;28;20427;-80
2022/11/18 03:07:51;;;;;;;6.05;1.65;;;;;;;;;;5039167;28;20033;-81
2022/11/18 03:10:19;;;;;;;4.07;0.95;;;;;;;;;;5056882;28;20037;-80
2022/11/18 03:12:48;;;;;;;8.48;2.03;;;;;;;;;;5057197;28;20057;-81
2022/11/18 03:15:33;;;;;;;4.55;1.88;;;;;;;;;;5054555;28;20090;-81
2022/11/18 03:18:05;;;;;;;11.70;2.40;;;;;;;;;;5037612;28;20237;-81
2022/11/18 03:20:34;;;;;;;9.77;2.03;;;;;;;;;;5055547;28;20079;-81
2022/11/18 03:23:06;;;;;;;7.72;1.88;;;;;;;;;;5057674;28;20045;-81
2022/11/18 03:25:44;;;;;;;6.32;1.27;;;;;;;;;;5032001;28;20611;-81
2022/11/18 03:28:20;;;;;;;7.88;1.70;;;;;;;;;;5056060;28;20743;-82
2022/11/18 03:30:50;;;;;;;6.15;2.17;;;;;;;;;;5058154;28;20037;-82
2022/11/18 03:33:20;;;;;;;8.55;2.15;;;;;;;;;;5054978;28;20051;-81
2022/11/18 03:35:47;;;;;;;5.88;1.92;;;;;;;;;;5036395;28;20722;-81
2022/11/18 03:38:15;;;;;;;4.80;2.05;;;;;;;;;;5036467;28;20037;-82
2022/11/18 03:40:44;;;;;;;2.88;1.55;;;;;;;;;;5037990;28;20565;-81
2022/11/18 03:43:12;;;;;;;10.20;2.50;;;;;;;;;;5053358;28;20079;-81
2022/11/18 03:45:45;;;;;;;10.25;2.80;;;;;;;;;;5049566;28;20090;-81
2022/11/18 03:48:10;;;;;;;;;;;;;;;;;;5036634;28;20568;-81
2022/11/18 03:50:40;;;;;;;12.80;2.13;;;;;;;;;;5050445;28;19931;-81
2022/11/18 03:53:06;;;;;;;11.50;3.05;;;;;;;;;;5055637;28;20041;-82
2022/11/18 03:55:35;;;;;;;13.75;2.10;;;;;;;;;;5056341;28;20041;-82
2022/11/18 03:58:18;;;;;;;8.38;2.00;;;;;;;;;;5055345;28;20045;-81
2022/11/18 04:00:43;;;;;;;;;;;;;;;;;;5053889;28;20080;-82
2022/11/18 04:03:11;;;;;;;9.70;1.85;;;;;;;;;;5055394;28;20440;-82
2022/11/18 04:05:41;;;;;;;14.20;2.78;;;;;;;;;;5055078;28;20053;-81
2022/11/18 04:08:10;;;;;;;6.93;2.00;;;;;;;;;;5030996;28;20119;-82
2022/11/18 04:11:02;;;;;;;5.07;1.50;;;;;;;;;;5053462;28;20049;-81
2022/11/18 04:13:33;;;;;;;6.53;1.63;;;;;;;;;;5032698;28;20053;-82
2022/11/18 04:15:59;;;;;;;5.35;2.40;;;;;;;;;;5029110;28;20057;-81
2022/11/18 04:18:26;;;;;;;10.10;2.92;;;;;;;;;;5055454;28;20041;-82
2022/11/18 04:20:52;;;;;;;6.38;2.05;;;;;;;;;;5028613;28;20044;-82
2022/11/18 04:23:18;;;;;;;9.02;1.67;;;;;;;;;;5053431;28;20049;-82
2022/11/18 04:25:44;;;;;;;5.18;1.90;;;;;;;;;;5031792;28;20103;-81
2022/11/18 04:28:10;;;;;;;14.95;3.33;;;;;;;;;;5055421;28;20216;-81
2022/11/18 04:30:36;;;;;;;8.00;2.13;;;;;;;;;;5051772;28;20087;-81
2022/11/18 04:33:02;;;;;;;9.30;2.47;;;;;;;;;;5052276;28;20090;-81
2022/11/18 04:35:28;;;;;;;7.00;2.67;;;;;;;;;;5035437;28;20057;-81
2022/11/18 04:37:54;;;;;;;8.35;3.15;;;;;;;;;;5054974;28;20051;-81
2022/11/18 04:40:20;;;;;;;9.57;2.47;;;;;;;;;;5054231;28;20049;-81
2022/11/18 04:42:47;;;;;;;10.60;2.60;;;;;;;;;;5030533;28;20049;-81
2022/11/18 04:45:13;;;;;;;9.98;1.90;;;;;;;;;;5029129;28;20039;-81
2022/11/18 04:47:39;;;;;;;3.13;1.70;;;;;;;;;;5054430;28;21067;-81
2022/11/18 04:50:05;;;;;;;6.20;1.80;;;;;;;;;;5055098;28;20640;-81
2022/11/18 04:52:31;;;;;;;3.35;1.85;;;;;;;;;;5055127;28;20164;-81
2022/11/18 04:54:57;;;;;;;6.00;2.45;;;;;;;;;;5056386;28;20041;-81
2022/11/18 04:57:23;;;;;;;7.15;2.15;;;;;;;;;;5054191;28;21401;-81
2022/11/18 04:59:49;;;;;;;9.25;3.80;;;;;;;;;;5055141;28;20049;-82
2022/11/18 05:02:16;;;;;;;7.15;2.08;;;;;;;;;;5056280;28;20048;-81
2022/11/18 05:04:42;;;;;;;5.15;2.10;;;;;;;;;;5032946;28;20052;-81
2022/11/18 05:07:08;;;;;;;8.40;2.67;;;;;;;;;;5054941;28;20067;-81
2022/11/18 05:09:34;;;;;;;9.70;2.30;;;;;;;;;;5030711;28;20946;-81
2022/11/18 05:14:45;;;;;;;9.98;1.80;;;;;;;;;;5054351;28;20529;-81
2022/11/18 05:17:12;;;;;;;13.18;2.50;;;;;;;;;;5028670;28;20044;-81
2022/11/18 05:19:39;;;;;;;10.50;2.53;;;;;;;;;;5029420;28;20072;-81
2022/11/18 05:22:05;;;;;;;7.70;3.63;;;;;;;;;;5029837;28;20076;-81
2022/11/18 05:24:32;;;;;;;4.68;1.40;;;;;;;;;;5055491;28;20103;-81
2022/11/18 05:26:58;;;;;;;8.70;2.38;;;;;;;;;;5050664;28;20052;-81
2022/11/18 05:29:24;;;;;;;15.10;2.40;;;;;;;;;;5053388;28;20627;-81
2022/11/18 05:31:50;;;;;;;7.07;3.40;;;;;;;;;;5035003;28;20045;-81
2022/11/18 05:34:16;;;;;;;4.05;2.45;;;;;;;;;;5053049;28;20040;-81
2022/11/18 05:36:42;;;;;;;7.75;3.15;;;;;;;;;;5034157;28;20184;-81
2022/11/18 05:39:11;;;;;;;11.55;1.58;;;;;;;;;;5034747;28;20098;-81
2022/11/18 05:44:22;;;;;;;15.98;3.03;;;;;;;;;;5053577;28;20045;-81
2022/11/18 05:46:48;;;;;;;7.72;1.77;;;;;;;;;;5052091;28;20119;-81
2022/11/18 05:49:14;;;;;;;8.57;1.88;;;;;;;;;;5053713;28;20072;-81
2022/11/18 05:51:40;;;;;;;6.22;1.58;;;;;;;;;;5051334;28;20087;-81
2022/11/18 05:54:07;;;;;;;10.77;1.70;;;;;;;;;;5054749;28;20507;-81
2022/11/18 05:56:43;;;;;;;5.97;1.98;;;;;;;;;;5032729;28;21225;-81
2022/11/18 05:59:09;;;;;;;11.00;1.88;;;;;;;;;;5053477;28;20041;-80
2022/11/18 06:01:41;;;;;;;6.47;1.55;;;;;;;;;;5053546;28;20122;-81
2022/11/18 06:04:11;;;;;;;8.45;2.20;;;;;;;;;;5053801;28;20052;-81
2022/11/18 06:06:37;;;;;;;5.68;2.60;;;;;;;;;;5036246;28;20041;-81
2022/11/18 06:09:04;;;;;;;6.07;2.63;;;;;;;;;;5054923;28;20049;-80
2022/11/18 06:11:33;;;;;;;4.80;1.67;;;;;;;;;;5037500;28;20044;-81
2022/11/18 06:14:02;;;;;;;4.78;2.40;;;;;;;;;;5036757;28;20041;-83
2022/11/18 06:16:29;;;;;;;4.40;1.80;;;;;;;;;;5051927;28;20498;-81
2022/11/18 06:18:55;;;;;;;4.50;3.00;;;;;;;;;;5032233;28;20075;-83
2022/11/18 06:21:22;;;;;;;9.50;2.15;;;;;;;;;;5055510;28;20047;-82
2022/11/18 06:23:48;;;;;;;10.30;4.20;;;;;;;;;;5055451;28;20577;-82
2022/11/18 06:26:15;;;;;;;14.38;2.20;;;;;;;;;;5031108;28;20040;-81
2022/11/18 06:28:42;;;;;;;7.53;2.25;;;;;;;;;;5037817;28;20056;-82
2022/11/18 06:31:08;;;;;;;10.30;2.67;;;;;;;;;;5038104;28;20503;-82
2022/11/18 06:33:34;;;;;;;2.80;1.48;;;;;;;;;;5055108;28;20565;-82
2022/11/18 06:36:00;;;;;;;9.55;2.45;;;;;;;;;;5055740;28;20049;-82
2022/11/18 06:38:26;;;;;;;5.45;2.85;;;;;;;;;;5053555;28;20045;-82
2022/11/18 06:40:52;;;;;;;14.75;3.30;;;;;;;;;;5057801;28;20102;-82
2022/11/18 06:43:37;;;;;;;8.23;3.95;;;;;;;;;;5057098;28;20819;-82
2022/11/18 06:48:49;;;;;;;5.63;1.80;;;;;;;;;;5056393;28;20053;-82
2022/11/18 06:51:16;;;;;;;7.88;2.05;;;;;;;;;;5055401;28;20045;-80
2022/11/18 06:53:42;;;;;;;11.15;1.98;;;;;;;;;;5036826;28;20519;-81
2022/11/18 06:56:12;;;;;;;8.07;2.38;;;;;;;;;;5030397;28;20048;-81
2022/11/18 06:58:39;;;;;;;10.48;2.40;;;;;;;;;;5038524;28;20648;-82
2022/11/18 07:01:16;;;;;;;11.55;4.63;;;;;;;;;;5051989;28;20037;-81
2022/11/18 07:03:43;;;;;;;13.30;2.53;;;;;;;;;;5030592;28;20037;-82
2022/11/18 07:06:11;;;;;;;7.50;2.08;;;;;;;;;;5028500;28;20091;-81
2022/11/18 07:08:38;;;;;;;6.78;2.30;;;;;;;;;;5055789;28;20045;-82
2022/11/18 07:11:06;;;;;;;8.57;2.70;;;;;;;;;;5030458;28;20041;-82
2022/11/18 07:13:32;;;;;;;5.50;2.08;;;;;;;;;;5053175;28;20249;-81
2022/11/18 07:16:05;;;;;;;4.63;2.13;;;;;;;;;;5054842;28;20045;-82
2022/11/18 07:18:36;;;;;;;7.57;1.92;;;;;;;;;;5054959;28;20052;-82
2022/11/18 07:21:07;;;;;;;10.70;2.13;;;;;;;;;;5027546;28;20550;-81
2022/11/18 07:23:33;;;;;;;9.63;2.13;;;;;;;;;;5055418;28;20064;-82
2022/11/18 07:26:00;;;;;;;9.48;3.75;;;;;;;;;;5035185;28;20065;-82
2022/11/18 07:28:26;;;;;;;10.57;2.22;;;;;;;;;;5054003;28;20192;-82
2022/11/18 07:30:52;;;;;;;3.38;1.83;;;;;;;;;;5051963;28;20045;-83
2022/11/18 07:33:18;;;;;;;10.43;2.42;;;;;;;;;;5037972;28;20041;-81
2022/11/18 07:35:44;;;;;;;8.15;2.22;;;;;;;;;;5056953;28;20056;-82
2022/11/18 07:38:10;;;;;;;7.22;1.27;;;;;;;;;;5057655;28;20196;-82
2022/11/18 07:40:36;;;;;;;8.68;3.05;;;;;;;;;;5040445;28;20044;-83
2022/11/18 07:43:02;;;;;;;10.77;1.98;;;;;;;;;;5059042;28;20041;-84
2022/11/18 07:45:28;;;;;;;6.15;2.55;;;;;;;;;;5056829;28;20056;-83
2022/11/18 07:47:55;;;;;;;8.00;2.17;;;;;;;;;;5040544;28;20056;-84
2022/11/18 07:50:21;;;;;;;5.88;2.50;;;;;;;;;;5034897;28;20080;-83
2022/11/18 07:52:47;;;;;;;4.55;1.63;;;;;;;;;;5058808;28;20083;-83
2022/11/18 07:55:13;;;;;;;3.63;1.73;;;;;;;;;;5057384;28;20041;-83
2022/11/18 07:57:39;;;;;;;6.30;2.38;;;;;;;;;;5034414;28;20041;-83
2022/11/18 08:00:06;;;;;;;4.97;1.77;;;;;;;;;;5056852;28;20174;-83
2022/11/18 08:02:32;;;;;;;11.57;2.67;;;;;;;;;;5057218;28;20048;-83
2022/11/18 08:04:58;;;;;;;19.00;2.42;;;;;;;;;;5057895;28;20081;-82
2022/11/18 08:07:24;;;;;;;6.18;2.08;;;;;;;;;;5058833;28;20241;-82
2022/11/18 08:09:50;;;;;;;8.23;2.42;;;;;;;;;;5040382;28;21077;-83
2022/11/18 08:12:16;;;;;;;9.35;2.15;;;;;;;;;;5040468;28;20526;-83
2022/11/18 08:14:42;;;;;;;6.25;1.85;;;;;;;;;;5056738;28;20998;-83
2022/11/18 08:17:08;;;;;;;2.70;1.15;;;;;;;;;;5057473;28;20041;-83
2022/11/18 08:19:34;;;;;;;9.93;2.65;;;;;;;;;;5033457;28;20128;-83
2022/11/18 08:22:00;;;;;;;6.32;1.70;;;;;;;;;;5058034;28;20828;-82
2022/11/18 08:24:26;;;;;;;4.20;1.45;;;;;;;;;;5057934;28;20116;-83
2022/11/18 08:26:52;;;;;;;5.13;2.15;;;;;;;;;;5038485;28;20060;-82
2022/11/18 08:29:18;;;;;;;8.35;2.25;;;;;;;;;;5054580;28;20037;-83
2022/11/18 08:31:45;;;;;;;7.35;2.10;;;;;;;;;;5058304;28;20048;-83
2022/11/18 08:34:11;;;;;;;5.50;1.42;;;;;;;;;;5033090;28;20041;-83
2022/11/18 08:36:38;;;;;;;9.70;2.30;;;;;;;;;;5057419;28;20037;-83
2022/11/18 08:39:05;;;;;;;6.53;2.15;;;;;;;;;;5057435;28;20041;-83
2022/11/18 08:41:31;;;;;;;5.45;1.75;;;;;;;;;;5057356;28;20041;-82
2022/11/18 08:43:57;;;;;;;9.07;2.65;;;;;;;;;;5056548;28;20044;-83
2022/11/18 08:46:23;;;;;;;5.15;1.60;;;;;;;;;;5057217;28;20052;-83
2022/11/18 08:48:49;;;;;;;8.02;1.98;;;;;;;;;;5055466;28;20049;-82
2022/11/18 08:51:16;;;;;;;7.80;1.92;;;;;;;;;;5056810;28;20112;-83
2022/11/18 08:53:42;;;;;;;5.90;2.55;;;;;;;;;;5057635;28;20040;-84
2022/11/18 08:56:12;;;;;;;1.92;1.13;;;;;;;;;;5057889;28;20072;-83
2022/11/18 08:58:38;;;;;;;5.07;2.75;;;;;;;;;;5037978;28;21284;-83
2022/11/18 09:01:05;;;;;;;6.03;1.88;;;;;;;;;;5057336;28;20041;-83
2022/11/18 09:03:31;;;;;;;4.88;1.58;;;;;;;;;;5055030;28;20069;-83
2022/11/18 09:06:24;;;;;;;7.30;3.15;;;;;;;;;;5028288;28;20144;-83
2022/11/18 09:08:50;;;;;;;;;;;;;;;;;;5033962;28;20056;-84
2022/11/18 09:11:18;;;;;;;5.72;1.52;;;;;;;;;;5037906;28;19957;-83
2022/11/18 09:13:44;;;;;;;4.85;1.63;;;;;;;;;;5036823;28;20587;-83
2022/11/18 09:16:12;;;;;;;5.10;1.77;;;;;;;;;;5037550;28;20511;-82
2022/11/18 09:18:38;;;;;;;5.95;1.92;;;;;;;;;;5037580;28;20034;-84
2022/11/18 09:21:07;;;;;;;4.05;1.65;;;;;;;;;;5037356;28;20065;-83
2022/11/18 09:23:34;;;;;;;5.30;2.45;;;;;;;;;;5029306;28;20165;-83
2022/11/18 09:26:04;;;;;;;5.63;1.85;;;;;;;;;;5037823;28;20924;-82
2022/11/18 09:28:31;;;;;;;2.58;1.55;;;;;;;;;;5030153;28;20103;-82
2022/11/18 09:30:57;;;;;;;4.03;1.85;;;;;;;;;;5029196;28;20844;-82
2022/11/18 09:33:23;;;;;;;6.40;1.52;;;;;;;;;;5037035;28;20049;-82
2022/11/18 09:35:49;;;;;;;6.28;1.98;;;;;;;;;;5038355;28;20849;-83
2022/11/18 09:38:15;;;;;;;6.53;1.63;;;;;;;;;;5032580;28;20519;-82
2022/11/18 09:40:55;;;;;;;4.28;2.67;;;;;;;;;;5031447;28;20041;-81
2022/11/18 09:43:40;;;;;;;6.07;1.65;;;;;;;;;;5040843;28;20125;-82
2022/11/18 09:46:15;;;;;;;4.80;1.73;;;;;;;;;;5040807;28;20050;-82
2022/11/18 09:51:27;;;;;;;5.72;1.88;;;;;;;;;;5041178;28;20168;-82
2022/11/18 09:53:53;;;;;;;4.22;1.60;;;;;;;;;;5032216;28;20159;-81
2022/11/18 09:56:20;;;;;;;13.13;2.30;;;;;;;;;;5040051;28;20044;-81
2022/11/18 09:58:47;;;;;;;8.43;1.67;;;;;;;;;;5040969;28;20041;-82
2022/11/18 10:01:16;;;;;;;5.78;1.33;;;;;;;;;;5040795;28;20116;-82
2022/11/18 10:03:42;;;;;;;4.75;2.00;;;;;;;;;;5041265;28;20077;-82
2022/11/18 10:06:09;;;;;;;5.30;1.38;;;;;;;;;;5058356;28;20061;-82
2022/11/18 10:08:38;;;;;;;15.93;5.82;;;;;;;;;;5059125;28;20052;-81
2022/11/18 10:11:13;;;;;;;5.43;2.00;;;;;;;;;;5041676;28;20659;-82
2022/11/18 10:13:49;;;;;;;6.60;1.63;;;;;;;;;;5058969;28;20044;-82
2022/11/18 10:16:22;;;;;;;10.00;3.45;;;;;;;;;;5060570;28;20052;-82
2022/11/18 10:19:09;;;;;;;8.55;2.70;;;;;;;;;;5060693;28;20596;-82
2022/11/18 10:22:07;;;;;;;8.15;1.73;;;;;;;;;;5041242;28;20037;-81
2022/11/18 10:24:36;;;;;;;6.72;1.52;;;;;;;;;;4994750;28;20049;-81
2022/11/18 10:27:08;;;;;;;3.42;1.75;;;;;;;;;;5058839;28;20663;-82
2022/11/18 10:29:34;;;;;;;8.32;2.05;;;;;;;;;;5060489;28;20101;-82
2022/11/18 10:32:05;;;;;;;7.50;1.45;;;;;;;;;;5060846;28;20041;-82
2022/11/18 10:34:32;;;;;;;7.45;2.38;;;;;;;;;;5060428;28;20077;-82
2022/11/18 10:37:18;;;;;;;5.88;1.75;;;;;;;;;;5035182;28;20052;-81
2022/11/18 10:39:52;;;;;;;4.60;1.85;;;;;;;;;;5034405;28;20875;-82
2022/11/18 10:42:25;;;;;;;3.17;1.23;;;;;;;;;;5059516;28;20037;-82
2022/11/18 10:44:51;;;;;;;4.80;1.83;;;;;;;;;;5060252;28;20041;-82
2022/11/18 10:47:25;;;;;;;3.90;1.60;;;;;;;;;;5058751;28;20541;-83
2022/11/18 10:49:55;;;;;;;5.68;1.70;;;;;;;;;;5041030;28;20604;-82
2022/11/18 10:52:21;;;;;;;4.40;1.85;;;;;;;;;;5059838;28;20116;-83
2022/11/18 10:55:05;;;;;;;8.07;2.05;;;;;;;;;;5041704;28;20036;-82
2022/11/18 10:57:34;;;;;;;8.25;2.90;;;;;;;;;;5058826;28;21862;-82
2022/11/18 11:00:00;;;;;;;5.15;1.50;;;;;;;;;;5040935;28;20167;-83
2022/11/18 11:02:34;;;;;;;3.17;1.40;;;;;;;;;;5058449;28;20051;-82
2022/11/18 11:05:14;;;;;;;7.90;1.70;;;;;;;;;;5058412;28;20059;-82
2022/11/18 11:07:40;;;;;;;7.43;2.15;;;;;;;;;;5060405;28;20041;-82
2022/11/18 11:10:10;;;;;;;4.65;1.58;;;;;;;;;;5061160;28;20044;-81
2022/11/18 11:12:37;;;;;;;3.92;1.67;;;;;;;;;;5060694;28;20087;-82
2022/11/18 11:15:21;;;;;;;1.75;1.40;;;;;;;;;;5062031;28;20051;-82
2022/11/18 11:18:40;;;;;;;4.47;1.42;;;;;;;;;;5060778;28;20048;-82
2022/11/18 11:20:43;;;;;;;6.53;1.25;;;;;;;;;;5060025;28;20126;-81
2022/11/18 11:23:10;;;;;;;5.20;1.35;;;;;;;;;;5060505;28;20565;-82
2022/11/18 11:25:43;;;;;;;5.93;2.58;;;;;;;;;;5062178;28;20060;-82
2022/11/18 11:28:18;;;;;;;10.93;1.45;;;;;;;;;;5059981;28;20051;-82
2022/11/18 11:30:48;;;;;;;7.18;1.90;;;;;;;;;;5062386;28;20044;-83
2022/11/18 11:33:35;;;;;;;5.85;1.58;;;;;;;;;;5062136;28;20041;-82
2022/11/18 11:36:02;;;;;;;4.72;1.70;;;;;;;;;;5062000;28;20515;-83
2022/11/18 11:38:31;;;;;;;3.67;1.40;;;;;;;;;;5062183;28;20423;-82
2022/11/18 11:41:02;;;;;;;5.10;1.45;;;;;;;;;;5037552;28;20037;-82
2022/11/18 11:43:34;;;;;;;6.78;2.22;;;;;;;;;;5061645;28;20052;-82
2022/11/18 11:46:06;;;;;;;4.03;1.60;;;;;;;;;;5037199;28;20092;-83
2022/11/18 11:48:32;;;;;;;;;;;;;;;;;;5062205;28;20053;-82
2022/11/18 11:51:02;;;;;;;4.05;1.25;;;;;;;;;;5061377;28;19920;-81
2022/11/18 11:53:47;;;;;;;3.70;1.65;;;;;;;;;;5061023;28;20037;-82
2022/11/18 11:56:32;;;;;;;4.20;2.83;;;;;;;;;;5035590;28;20452;-82
2022/11/18 11:58:58;;;;;;;3.80;1.45;;;;;;;;;;5059145;28;20912;-81
2022/11/18 12:01:39;;;;;;;4.18;1.70;;;;;;;;;;5060027;28;20041;-81
2022/11/18 12:04:11;;;;;;;5.57;1.83;;;;;;;;;;5060341;28;20048;-81
2022/11/18 12:06:38;;;;;;;5.60;1.52;;;;;;;;;;5042640;28;20298;-82
2022/11/18 12:09:33;;;;;;;12.60;2.83;;;;;;;;;;5043085;28;20549;-81
2022/11/18 12:12:52;;;;;;;4.57;1.67;;;;;;;;;;4964936;28;20060;-82
2022/11/18 12:15:23;;;;;;;5.95;1.80;;;;;;;;;;5056788;28;20055;-81
2022/11/18 12:17:50;;;;;;;5.70;1.52;;;;;;;;;;5060905;28;20045;-82
2022/11/18 12:20:36;;;;;;;8.85;2.40;;;;;;;;;;5060000;28;20041;-82
2022/11/18 12:23:13;;;;;;;7.68;1.90;;;;;;;;;;5059760;28;20095;-82
2022/11/18 12:25:59;;;;;;;9.82;2.40;;;;;;;;;;5059118;28;20048;-82
2022/11/18 12:28:28;;;;;;;10.52;1.83;;;;;;;;;;5059371;28;20044;-81
2022/11/18 12:31:27;;;;;;;13.38;1.80;;;;;;;;;;5034802;28;20044;-81
2022/11/18 12:33:54;;;;;;;5.10;2.03;;;;;;;;;;5011723;28;20126;-82
2022/11/18 12:36:26;;;;;;;3.17;0.80;;;;;;;;;;5063784;28;20048;-81
2022/11/18 12:38:53;;;;;;;8.73;3.17;;;;;;;;;;5061471;28;20124;-82
2022/11/18 12:44:32;;;;;;;12.82;3.83;;;;;;;;;;5053455;28;20057;-82
2022/11/18 12:46:59;;;;;;;6.32;1.98;;;;;;;;;;5036319;28;20037;-81
2022/11/18 12:49:25;;;;;;;10.02;2.00;;;;;;;;;;5060369;28;20049;-81
2022/11/18 12:51:52;;;;;;;5.60;1.80;;;;;;;;;;5041367;28;20049;-82
2022/11/18 12:54:31;;;;;;;8.32;2.70;;;;;;;;;;5060428;28;20426;-82
2022/11/18 12:57:02;;;;;;;6.72;1.65;;;;;;;;;;5060625;28;20114;-81
2022/11/18 12:59:37;;;;;;;2.72;1.27;;;;;;;;;;5059357;28;20099;-81
2022/11/18 13:02:04;;;;;;;9.07;2.00;;;;;;;;;;5057793;28;20095;-78
2022/11/18 13:04:30;;;;;;;6.75;1.95;;;;;;;;;;5054016;28;20102;-79
2022/11/18 13:06:59;;;;;;;7.05;3.38;;;;;;;;;;5055951;28;20049;-79
2022/11/18 13:09:25;;;;;;;9.82;3.70;;;;;;;;;;5054050;28;20094;-79
2022/11/18 13:11:57;;;;;;;8.85;1.67;;;;;;;;;;5060291;28;20079;-78
2022/11/18 13:20:21;;;;;;;4.57;1.65;;;;;;;;;;5058590;28;20044;-81
2022/11/18 13:25:41;;;;;;;5.85;1.55;;;;;;;;;;5056841;28;20053;-79
2022/11/18 13:28:07;;;;;;;9.73;3.08;;;;;;;;;;5040659;28;20045;-79
2022/11/18 13:30:35;;;;;;;7.68;2.10;;;;;;;;;;5054241;28;20090;-79
2022/11/18 13:33:01;;;;;;;5.35;1.90;;;;;;;;;;5059216;28;20103;-79
2022/11/18 13:35:28;;;;;;;10.93;1.88;;;;;;;;;;5055893;28;20710;-79
2022/11/18 13:37:58;;;;;;;3.28;0.98;;;;;;;;;;5057198;28;20037;-81
2022/11/18 13:40:24;;;;;;;6.97;1.63;;;;;;;;;;5058362;28;20045;-83
2022/11/18 13:42:50;;;;;;;3.38;2.03;;;;;;;;;;5040143;28;20060;-83
2022/11/18 13:45:17;;;;;;;4.20;1.40;;;;;;;;;;5060432;28;20048;-82
2022/11/18 13:47:43;;;;;;;9.00;2.50;;;;;;;;;;5034692;28;20498;-83
2022/11/18 13:50:24;;;;;;;4.30;1.75;;;;;;;;;;5059191;28;21035;-82
2022/11/18 13:52:54;;;;;;;6.13;2.10;;;;;;;;;;5053197;28;20052;-84
2022/11/18 13:55:23;;;;;;;3.60;1.40;;;;;;;;;;5039817;28;20240;-82
2022/11/18 13:57:50;;;;;;;9.60;1.50;;;;;;;;;;5056833;28;20088;-80
2022/11/18 14:00:20;;;;;;;4.82;1.83;;;;;;;;;;5057023;28;20102;-81
2022/11/18 14:02:49;;;;;;;4.95;1.70;;;;;;;;;;5055150;28;20546;-84
2022/11/18 14:05:19;;;;;;;4.25;1.35;;;;;;;;;;5051738;28;20053;-84
2022/11/18 14:07:55;;;;;;;7.32;1.52;;;;;;;;;;5036796;28;20048;-84
2022/11/18 14:10:28;;;;;;;13.82;2.83;;;;;;;;;;5031373;28;20913;-83
2022/11/18 14:12:58;;;;;;;3.70;1.48;;;;;;;;;;5039225;28;20048;-86
2022/11/18 14:15:30;;;;;;;6.03;1.50;;;;;;;;;;5039149;28;20776;-84
2022/11/18 14:17:57;;;;;;;8.40;1.90;;;;;;;;;;5033234;28;20088;-86
2022/11/18 14:20:25;;;;;;;5.85;1.98;;;;;;;;;;5036994;28;20120;-83
2022/11/18 14:22:55;;;;;;;7.93;2.00;;;;;;;;;;5037877;28;20128;-84
2022/11/18 14:25:23;;;;;;;4.85;1.45;;;;;;;;;;5033470;28;20045;-82
2022/11/18 14:27:50;;;;;;;4.80;2.42;;;;;;;;;;5033368;28;20482;-84
2022/11/18 14:30:31;;;;;;;9.02;1.88;;;;;;;;;;5040841;28;20041;-84
2022/11/18 14:33:11;;;;;;;8.27;1.70;;;;;;;;;;5040779;28;20052;-81
2022/11/18 14:35:38;;;;;;;6.40;2.00;;;;;;;;;;5038278;28;20131;-83
2022/11/18 14:38:16;;;;;;;4.32;2.33;;;;;;;;;;5039912;28;20045;-83
2022/11/18 14:40:42;;;;;;;6.05;2.15;;;;;;;;;;5037695;28;20046;-82
2022/11/18 14:43:10;;;;;;;4.65;1.90;;;;;;;;;;5056326;28;20050;-82
2022/11/18 14:45:37;;;;;;;9.52;2.92;;;;;;;;;;5038281;28;20452;-82
2022/11/18 14:48:03;;;;;;;7.68;2.65;;;;;;;;;;5039746;28;20044;-83
2022/11/18 14:50:29;;;;;;;13.75;3.20;;;;;;;;;;5038601;28;20124;-83
2022/11/18 14:52:55;;;;;;;3.15;1.40;;;;;;;;;;5032945;28;20761;-83
2022/11/18 14:55:21;;;;;;;8.90;2.13;;;;;;;;;;5039256;28;20044;-85
2022/11/18 14:57:47;;;;;;;6.28;2.05;;;;;;;;;;5039675;28;20057;-82
2022/11/18 15:00:15;;;;;;;12.85;2.85;;;;;;;;;;5038270;28;20080;-83
2022/11/18 15:02:41;;;;;;;2.13;1.20;;;;;;;;;;5039189;28;20091;-81
2022/11/18 15:05:07;;;;;;;3.45;1.48;;;;;;;;;;5046086;28;20114;-82
2022/11/18 15:07:33;;;;;;;6.50;2.17;;;;;;;;;;5042115;28;20091;-83
2022/11/18 15:10:02;;;;;;;9.65;2.05;;;;;;;;;;5036557;28;20183;-82
2022/11/18 15:12:29;;;;;;;7.07;1.98;;;;;;;;;;5060762;28;20099;-82
2022/11/18 15:14:55;;;;;;;3.58;1.65;;;;;;;;;;5060976;28;20068;-82
2022/11/18 15:17:21;;;;;;;8.07;2.53;;;;;;;;;;5059128;28;20064;-82
2022/11/18 15:19:47;;;;;;;6.75;2.55;;;;;;;;;;5061136;28;20037;-83